sensor_id;sensor_type;location;lat;lon;timestamp;pressure;altitude;pressure_sealevel;temperature;humidity
7180;BME280;3631;42.152;24.756;2024-02-26T00:00:39;86128.06;;;-144.30;100.00
7180;BME280;3631;42.152;24.756;2024-02-26T00:03:06;86128.06;;;-144.30;100.00
7180;BME280;3631;42.152;24.756;2024-02-26T00:05:33;86140.00;;;-144.30;100.00
7180;BME280;3631;42.152;24.756;2024-02-26T00:08:00;86122.09;;;-144.30;100.00
7180;BME280;3631;42.152;24.756;2024-02-26T00:10:28;86134.03;;;-144.30;100.00
7180;BME280;3631;42.152;24.756;2024-02-26T00:12:55;86142.00;;;-144.30;100.00
7180;BME280;3631;42.152;24.756;2024-02-26T00:15:22;86124.09;;;-144.30;100.00
7180;BME280;3631;42.152;24.756;2024-02-26T00:17:49;86165.84;;;-144.30;100.00
7180;BME280;3631;42.152;24.756;2024-02-26T00:20:16;86104.22;;;-144.30;100.00
7180;BME280;3631;42.152;24.756;2024-02-26T00:22:43;86140.00;;;-144.30;100.00
7180;BME280;3631;42.152;24.756;2024-02-26T00:25:10;86108.19;;;-144.30;100.00
7180;BME280;3631;42.152;24.756;2024-02-26T00:27:39;86140.00;;;-144.30;100.00
7180;BME280;3631;42.152;24.756;2024-02-26T00:30:08;86124.09;;;-144.30;100.00
7180;BME280;3631;42.152;24.756;2024-02-26T00:32:35;86036.59;;;-144.30;100.00
7180;BME280;3631;42.152;24.756;2024-02-26T00:35:02;86140.00;;;-144.30;100.00
7180;BME280;3631;42.152;24.756;2024-02-26T00:37:29;86151.94;;;-144.30;100.00
7180;BME280;3631;42.152;24.756;2024-02-26T00:39:56;86132.06;;;-144.30;100.00
7180;BME280;3631;42.152;24.756;2024-02-26T00:42:23;86116.16;;;-144.30;100.00
7180;BME280;3631;42.152;24.756;2024-02-26T00:44:51;86098.25;;;-144.30;100.00
7180;BME280;3631;42.152;24.756;2024-02-26T00:47:18;86118.13;;;-144.30;100.00
7180;BME280;3631;42.152;24.756;2024-02-26T00:49:45;86157.91;;;-144.30;100.00
7180;BME280;3631;42.152;24.756;2024-02-26T00:52:12;86104.22;;;-144.30;100.00
7180;BME280;3631;42.152;24.756;2024-02-26T00:54:39;86134.03;;;-144.30;100.00
7180;BME280;3631;42.152;24.756;2024-02-26T00:57:06;86151.94;;;-144.30;100.00
7180;BME280;3631;42.152;24.756;2024-02-26T00:59:33;86143.97;;;-144.30;100.00
7180;BME280;3631;42.152;24.756;2024-02-26T01:02:01;86094.28;;;-144.30;100.00
7180;BME280;3631;42.152;24.756;2024-02-26T01:04:29;86084.34;;;-144.30;100.00
7180;BME280;3631;42.152;24.756;2024-02-26T01:06:56;86110.19;;;-144.30;100.00
7180;BME280;3631;42.152;24.756;2024-02-26T01:09:23;86114.16;;;-144.30;100.00
7180;BME280;3631;42.152;24.756;2024-02-26T01:11:50;86128.06;;;-144.30;100.00
7180;BME280;3631;42.152;24.756;2024-02-26T01:14:17;86114.16;;;-144.30;100.00
7180;BME280;3631;42.152;24.756;2024-02-26T01:16:44;86102.22;;;-144.30;100.00
7180;BME280;3631;42.152;24.756;2024-02-26T01:19:12;86116.16;;;-144.30;100.00
7180;BME280;3631;42.152;24.756;2024-02-26T01:21:39;86281.19;;;-144.30;100.00
7180;BME280;3631;42.152;24.756;2024-02-26T01:24:06;86143.97;;;-144.30;100.00
7180;BME280;3631;42.152;24.756;2024-02-26T01:26:33;86116.16;;;-144.30;100.00
7180;BME280;3631;42.152;24.756;2024-02-26T01:29:00;86134.03;;;-144.30;100.00
7180;BME280;3631;42.152;24.756;2024-02-26T01:31:27;86114.16;;;-144.30;100.00
7180;BME280;3631;42.152;24.756;2024-02-26T01:33:54;86094.28;;;-144.30;100.00
7180;BME280;3631;42.152;24.756;2024-02-26T01:36:22;86094.28;;;-144.30;100.00
7180;BME280;3631;42.152;24.756;2024-02-26T01:38:49;86120.13;;;-144.30;100.00
7180;BME280;3631;42.152;24.756;2024-02-26T01:41:16;86126.09;;;-144.30;100.00
7180;BME280;3631;42.152;24.756;2024-02-26T01:43:43;86072.41;;;-144.30;100.00
7180;BME280;3631;42.152;24.756;2024-02-26T01:46:12;86112.16;;;-144.30;100.00
7180;BME280;3631;42.152;24.756;2024-02-26T01:48:40;86151.94;;;-144.30;100.00
7180;BME280;3631;42.152;24.756;2024-02-26T01:51:08;86112.16;;;-144.30;100.00
7180;BME280;3631;42.152;24.756;2024-02-26T01:53:36;86104.22;;;-144.30;100.00
7180;BME280;3631;42.152;24.756;2024-02-26T01:56:04;86132.06;;;-144.30;100.00
7180;BME280;3631;42.152;24.756;2024-02-26T01:58:31;86112.16;;;-144.30;100.00
7180;BME280;3631;42.152;24.756;2024-02-26T02:00:59;86112.16;;;-144.30;100.00
7180;BME280;3631;42.152;24.756;2024-02-26T02:03:27;86124.09;;;-144.30;100.00
7180;BME280;3631;42.152;24.756;2024-02-26T02:05:54;86126.09;;;-144.30;100.00
7180;BME280;3631;42.152;24.756;2024-02-26T02:08:22;86130.06;;;-144.30;100.00
7180;BME280;3631;42.152;24.756;2024-02-26T02:10:51;86142.00;;;-144.30;100.00
7180;BME280;3631;42.152;24.756;2024-02-26T02:13:17;86173.81;;;-144.30;100.00
7180;BME280;3631;42.152;24.756;2024-02-26T02:15:44;86143.97;;;-144.30;100.00
7180;BME280;3631;42.152;24.756;2024-02-26T02:18:11;86112.16;;;-144.30;100.00
7180;BME280;3631;42.152;24.756;2024-02-26T02:20:39;86128.06;;;-144.30;100.00
7180;BME280;3631;42.152;24.756;2024-02-26T02:23:06;86122.09;;;-144.30;100.00
7180;BME280;3631;42.152;24.756;2024-02-26T02:25:33;86159.88;;;-144.30;100.00
7180;BME280;3631;42.152;24.756;2024-02-26T02:28:00;86142.00;;;-144.30;100.00
7180;BME280;3631;42.152;24.756;2024-02-26T02:30:29;87160.19;;;-144.30;100.00
7180;BME280;3631;42.152;24.756;2024-02-26T02:32:57;86147.97;;;-144.30;100.00
7180;BME280;3631;42.152;24.756;2024-02-26T02:35:24;86155.91;;;-144.30;100.00
7180;BME280;3631;42.152;24.756;2024-02-26T02:37:52;86108.19;;;-144.30;100.00
7180;BME280;3631;42.152;24.756;2024-02-26T02:40:19;86167.84;;;-144.30;100.00
7180;BME280;3631;42.152;24.756;2024-02-26T02:42:46;86179.78;;;-144.30;100.00
7180;BME280;3631;42.152;24.756;2024-02-26T02:45:13;86185.72;;;-144.30;100.00
7180;BME280;3631;42.152;24.756;2024-02-26T02:47:40;86207.59;;;-144.30;100.00
7180;BME280;3631;42.152;24.756;2024-02-26T02:50:08;86167.84;;;-144.30;100.00
7180;BME280;3631;42.152;24.756;2024-02-26T02:52:33;86122.09;;;-144.30;100.00
7180;BME280;3631;42.152;24.756;2024-02-26T02:55:02;86185.72;;;-144.30;100.00
7180;BME280;3631;42.152;24.756;2024-02-26T02:57:29;86153.91;;;-144.30;100.00
7180;BME280;3631;42.152;24.756;2024-02-26T02:59:57;86179.78;;;-144.30;100.00
7180;BME280;3631;42.152;24.756;2024-02-26T03:02:23;86171.81;;;-144.30;100.00
7180;BME280;3631;42.152;24.756;2024-02-26T03:04:51;86167.84;;;-144.30;100.00
7180;BME280;3631;42.152;24.756;2024-02-26T03:07:18;86126.09;;;-144.30;100.00
7180;BME280;3631;42.152;24.756;2024-02-26T03:09:45;86167.84;;;-144.30;100.00
7180;BME280;3631;42.152;24.756;2024-02-26T03:12:13;86165.84;;;-144.30;100.00
7180;BME280;3631;42.152;24.756;2024-02-26T03:14:40;86132.06;;;-144.30;100.00
7180;BME280;3631;42.152;24.756;2024-02-26T03:17:07;86185.72;;;-144.30;100.00
7180;BME280;3631;42.152;24.756;2024-02-26T03:19:34;86122.09;;;-144.30;100.00
7180;BME280;3631;42.152;24.756;2024-02-26T03:22:01;86191.69;;;-144.30;100.00
7180;BME280;3631;42.152;24.756;2024-02-26T03:24:28;86134.03;;;-144.30;100.00
7180;BME280;3631;42.152;24.756;2024-02-26T03:26:55;86203.63;;;-144.30;100.00
7180;BME280;3631;42.152;24.756;2024-02-26T03:29:23;86187.72;;;-144.30;100.00
7180;BME280;3631;42.152;24.756;2024-02-26T03:31:50;86191.69;;;-144.30;100.00
7180;BME280;3631;42.152;24.756;2024-02-26T03:34:17;86128.06;;;-144.30;100.00
7180;BME280;3631;42.152;24.756;2024-02-26T03:36:45;86177.78;;;-144.30;100.00
7180;BME280;3631;42.152;24.756;2024-02-26T03:39:12;86177.78;;;-144.30;100.00
7180;BME280;3631;42.152;24.756;2024-02-26T03:41:39;86161.88;;;-144.30;100.00
7180;BME280;3631;42.152;24.756;2024-02-26T03:44:06;86179.78;;;-144.30;100.00
7180;BME280;3631;42.152;24.756;2024-02-26T03:46:34;86225.50;;;-144.30;100.00
7180;BME280;3631;42.152;24.756;2024-02-26T03:49:01;86185.72;;;-144.30;100.00
7180;BME280;3631;42.152;24.756;2024-02-26T03:51:28;86177.78;;;-144.30;100.00
7180;BME280;3631;42.152;24.756;2024-02-26T03:53:56;86155.91;;;-144.30;100.00
7180;BME280;3631;42.152;24.756;2024-02-26T03:56:23;86199.66;;;-144.30;100.00
7180;BME280;3631;42.152;24.756;2024-02-26T03:58:50;86211.59;;;-144.30;100.00
7180;BME280;3631;42.152;24.756;2024-02-26T04:01:17;86175.78;;;-144.30;100.00
7180;BME280;3631;42.152;24.756;2024-02-26T04:03:46;86211.59;;;-144.30;100.00
7180;BME280;3631;42.152;24.756;2024-02-26T04:06:13;86219.53;;;-144.30;100.00
7180;BME280;3631;42.152;24.756;2024-02-26T04:08:40;86171.81;;;-144.30;100.00
7180;BME280;3631;42.152;24.756;2024-02-26T04:11:07;86161.88;;;-144.30;100.00
7180;BME280;3631;42.152;24.756;2024-02-26T04:13:34;86185.72;;;-144.30;100.00
7180;BME280;3631;42.152;24.756;2024-02-26T04:16:01;86253.34;;;-144.30;100.00
7180;BME280;3631;42.152;24.756;2024-02-26T04:18:28;86235.44;;;-144.30;100.00
7180;BME280;3631;42.152;24.756;2024-02-26T04:20:56;86191.69;;;-144.30;100.00
7180;BME280;3631;42.152;24.756;2024-02-26T04:23:23;86201.66;;;-144.30;100.00
7180;BME280;3631;42.152;24.756;2024-02-26T04:25:50;86128.06;;;-144.30;100.00
7180;BME280;3631;42.152;24.756;2024-02-26T04:28:18;86177.78;;;-144.30;100.00
7180;BME280;3631;42.152;24.756;2024-02-26T04:30:47;86191.69;;;-144.30;100.00
7180;BME280;3631;42.152;24.756;2024-02-26T04:33:14;86130.06;;;-144.30;100.00
7180;BME280;3631;42.152;24.756;2024-02-26T04:35:41;86231.47;;;-144.30;100.00
7180;BME280;3631;42.152;24.756;2024-02-26T04:38:09;86223.50;;;-144.30;100.00
7180;BME280;3631;42.152;24.756;2024-02-26T04:40:36;86205.63;;;-144.30;100.00
7180;BME280;3631;42.152;24.756;2024-02-26T04:43:03;86157.91;;;-144.30;100.00
7180;BME280;3631;42.152;24.756;2024-02-26T04:45:30;86241.41;;;-144.30;100.00
7180;BME280;3631;42.152;24.756;2024-02-26T04:47:57;86243.41;;;-144.30;100.00
7180;BME280;3631;42.152;24.756;2024-02-26T04:50:24;86195.69;;;-144.30;100.00
7180;BME280;3631;42.152;24.756;2024-02-26T04:52:51;86219.53;;;-144.30;100.00
7180;BME280;3631;42.152;24.756;2024-02-26T04:55:19;86197.66;;;-144.30;100.00
7180;BME280;3631;42.152;24.756;2024-02-26T04:57:46;86219.53;;;-144.30;100.00
7180;BME280;3631;42.152;24.756;2024-02-26T05:00:14;86197.66;;;-144.30;100.00
7180;BME280;3631;42.152;24.756;2024-02-26T05:02:41;86211.59;;;-144.30;100.00
7180;BME280;3631;42.152;24.756;2024-02-26T05:05:08;86175.78;;;-144.30;100.00
7180;BME280;3631;42.152;24.756;2024-02-26T05:07:39;86201.66;;;-144.30;100.00
7180;BME280;3631;42.152;24.756;2024-02-26T05:10:07;86217.56;;;-144.30;100.00
7180;BME280;3631;42.152;24.756;2024-02-26T05:12:35;86183.75;;;-144.30;99.34
7180;BME280;3631;42.152;24.756;2024-02-26T05:15:02;86175.78;;;-144.30;99.13
7180;BME280;3631;42.152;24.756;2024-02-26T05:17:29;86191.69;;;-144.30;99.76
7180;BME280;3631;42.152;24.756;2024-02-26T05:19:56;86195.69;;;-144.30;99.93
7180;BME280;3631;42.152;24.756;2024-02-26T05:22:23;86191.69;;;-144.30;99.17
7180;BME280;3631;42.152;24.756;2024-02-26T05:24:50;86173.81;;;-144.30;99.45
7180;BME280;3631;42.152;24.756;2024-02-26T05:27:17;86195.69;;;-144.30;99.13
7180;BME280;3631;42.152;24.756;2024-02-26T05:29:46;86175.78;;;-144.30;99.18
7180;BME280;3631;42.152;24.756;2024-02-26T05:32:13;86231.47;;;-144.30;99.15
7180;BME280;3631;42.152;24.756;2024-02-26T05:34:39;86195.69;;;-144.30;99.40
7180;BME280;3631;42.152;24.756;2024-02-26T05:37:07;86199.66;;;-144.30;99.68
7180;BME280;3631;42.152;24.756;2024-02-26T05:39:34;86183.75;;;-144.30;99.41
7180;BME280;3631;42.152;24.756;2024-02-26T05:42:01;86136.03;;;-144.30;99.68
7180;BME280;3631;42.152;24.756;2024-02-26T05:44:28;86199.66;;;-144.30;99.30
7180;BME280;3631;42.152;24.756;2024-02-26T05:46:56;86171.81;;;-144.30;99.62
7180;BME280;3631;42.152;24.756;2024-02-26T05:49:23;86231.47;;;-144.30;99.61
7180;BME280;3631;42.152;24.756;2024-02-26T05:51:50;86191.69;;;-144.30;99.44
7180;BME280;3631;42.152;24.756;2024-02-26T05:54:17;86189.72;;;-144.30;99.14
7180;BME280;3631;42.152;24.756;2024-02-26T05:56:44;86177.78;;;-144.30;98.92
7180;BME280;3631;42.152;24.756;2024-02-26T05:59:11;86159.88;;;-144.30;98.53
7180;BME280;3631;42.152;24.756;2024-02-26T06:01:38;86167.84;;;-144.30;98.51
7180;BME280;3631;42.152;24.756;2024-02-26T06:04:06;86070.41;;;-144.30;98.28
7180;BME280;3631;42.152;24.756;2024-02-26T06:06:33;86179.78;;;-144.30;98.02
7180;BME280;3631;42.152;24.756;2024-02-26T06:09:00;86151.94;;;-144.30;97.51
7180;BME280;3631;42.152;24.756;2024-02-26T06:11:27;86161.88;;;-144.30;97.41
7180;BME280;3631;42.152;24.756;2024-02-26T06:13:53;86132.06;;;-144.30;97.03
7180;BME280;3631;42.152;24.756;2024-02-26T06:16:20;86143.97;;;-144.30;97.31
7180;BME280;3631;42.152;24.756;2024-02-26T06:18:47;86120.13;;;-144.30;97.18
7180;BME280;3631;42.152;24.756;2024-02-26T06:21:15;86157.91;;;-144.30;96.98
7180;BME280;3631;42.152;24.756;2024-02-26T06:23:42;86143.97;;;-144.30;96.30
7180;BME280;3631;42.152;24.756;2024-02-26T06:26:09;86108.19;;;-144.30;96.20
7180;BME280;3631;42.152;24.756;2024-02-26T06:28:36;86114.16;;;-144.30;96.03
7180;BME280;3631;42.152;24.756;2024-02-26T06:31:06;86124.09;;;-144.30;96.13
7180;BME280;3631;42.152;24.756;2024-02-26T06:33:33;86130.06;;;-144.30;95.98
7180;BME280;3631;42.152;24.756;2024-02-26T06:36:00;86134.03;;;-144.30;95.84
7180;BME280;3631;42.152;24.756;2024-02-26T06:38:28;85901.41;;;-144.30;95.21
7180;BME280;3631;42.152;24.756;2024-02-26T06:40:55;86153.91;;;-144.30;95.04
7180;BME280;3631;42.152;24.756;2024-02-26T06:43:22;86090.28;;;-144.30;96.06
7180;BME280;3631;42.152;24.756;2024-02-26T06:45:49;86124.09;;;-144.30;96.50
7180;BME280;3631;42.152;24.756;2024-02-26T06:48:16;86118.13;;;-144.30;96.39
7180;BME280;3631;42.152;24.756;2024-02-26T06:50:42;86088.31;;;-144.30;96.29
7180;BME280;3631;42.152;24.756;2024-02-26T06:53:10;86134.03;;;-144.30;96.01
7180;BME280;3631;42.152;24.756;2024-02-26T06:55:38;86134.03;;;-144.30;95.52
7180;BME280;3631;42.152;24.756;2024-02-26T06:58:06;86108.19;;;-144.30;95.30
7180;BME280;3631;42.152;24.756;2024-02-26T07:00:33;86100.25;;;-144.30;95.36
7180;BME280;3631;42.152;24.756;2024-02-26T07:03:00;86122.09;;;-144.30;94.90
7180;BME280;3631;42.152;24.756;2024-02-26T07:05:27;86128.06;;;-144.30;94.79
7180;BME280;3631;42.152;24.756;2024-02-26T07:07:53;86092.28;;;-144.30;94.59
7180;BME280;3631;42.152;24.756;2024-02-26T07:10:20;86116.16;;;-144.30;94.75
7180;BME280;3631;42.152;24.756;2024-02-26T07:12:49;86106.19;;;-144.30;94.29
7180;BME280;3631;42.152;24.756;2024-02-26T07:15:16;86106.19;;;-144.30;94.39
7180;BME280;3631;42.152;24.756;2024-02-26T07:17:44;86088.31;;;-144.30;94.94
7180;BME280;3631;42.152;24.756;2024-02-26T07:20:13;86036.59;;;-144.30;94.87
7180;BME280;3631;42.152;24.756;2024-02-26T07:22:40;86108.19;;;-144.30;94.21
7180;BME280;3631;42.152;24.756;2024-02-26T07:25:07;86124.09;;;-144.30;94.27
7180;BME280;3631;42.152;24.756;2024-02-26T07:27:38;86096.25;;;-144.30;94.05
7180;BME280;3631;42.152;24.756;2024-02-26T07:30:07;86088.31;;;-144.30;94.02
7180;BME280;3631;42.152;24.756;2024-02-26T07:32:35;86128.06;;;-144.30;94.33
7180;BME280;3631;42.152;24.756;2024-02-26T07:35:02;86098.25;;;-144.30;93.95
7180;BME280;3631;42.152;24.756;2024-02-26T07:37:28;86116.16;;;-144.30;94.43
7180;BME280;3631;42.152;24.756;2024-02-26T07:39:55;86044.56;;;-144.30;94.03
7180;BME280;3631;42.152;24.756;2024-02-26T07:42:22;86060.47;;;-144.30;93.93
7180;BME280;3631;42.152;24.756;2024-02-26T07:44:50;86175.78;;;-144.30;93.23
7180;BME280;3631;42.152;24.756;2024-02-26T07:47:19;86068.41;;;-144.30;92.98
7180;BME280;3631;42.152;24.756;2024-02-26T07:49:46;86048.53;;;-144.30;92.86
7180;BME280;3631;42.152;24.756;2024-02-26T07:52:13;86084.34;;;-144.30;93.27
7180;BME280;3631;42.152;24.756;2024-02-26T07:54:40;86092.28;;;-144.30;93.11
7180;BME280;3631;42.152;24.756;2024-02-26T07:57:07;86078.38;;;-144.30;92.99
7180;BME280;3631;42.152;24.756;2024-02-26T07:59:34;86032.63;;;-144.30;92.68
7180;BME280;3631;42.152;24.756;2024-02-26T08:02:00;86048.53;;;-144.30;92.16
7180;BME280;3631;42.152;24.756;2024-02-26T08:04:30;86050.53;;;-144.30;92.74
7180;BME280;3631;42.152;24.756;2024-02-26T08:06:57;86064.44;;;-144.30;93.14
7180;BME280;3631;42.152;24.756;2024-02-26T08:09:23;86080.34;;;-144.30;92.67
7180;BME280;3631;42.152;24.756;2024-02-26T08:11:50;86084.34;;;-144.30;92.42
7180;BME280;3631;42.152;24.756;2024-02-26T08:14:17;86030.66;;;-144.30;92.43
7180;BME280;3631;42.152;24.756;2024-02-26T08:16:44;86060.47;;;-144.30;91.65
7180;BME280;3631;42.152;24.756;2024-02-26T08:19:11;86018.72;;;-144.30;91.39
7180;BME280;3631;42.152;24.756;2024-02-26T08:21:41;86018.72;;;-144.30;91.45
7180;BME280;3631;42.152;24.756;2024-02-26T08:24:08;85996.84;;;-144.30;90.88
7180;BME280;3631;42.152;24.756;2024-02-26T08:26:35;85996.84;;;-144.30;90.35
7180;BME280;3631;42.152;24.756;2024-02-26T08:29:02;86016.72;;;-144.30;89.43
7180;BME280;3631;42.152;24.756;2024-02-26T08:31:29;86004.78;;;-144.30;89.24
7180;BME280;3631;42.152;24.756;2024-02-26T08:33:56;85976.97;;;-144.30;88.67
7180;BME280;3631;42.152;24.756;2024-02-26T08:36:23;85953.09;;;-144.30;88.97
7180;BME280;3631;42.152;24.756;2024-02-26T08:38:52;85980.94;;;-144.30;88.81
7180;BME280;3631;42.152;24.756;2024-02-26T08:41:18;86000.81;;;-144.30;88.50
7180;BME280;3631;42.152;24.756;2024-02-26T08:43:45;85658.84;;;-144.30;88.69
7180;BME280;3631;42.152;24.756;2024-02-26T08:46:12;85996.84;;;-144.30;88.43
7180;BME280;3631;42.152;24.756;2024-02-26T08:48:40;85931.22;;;-144.30;87.83
7180;BME280;3631;42.152;24.756;2024-02-26T08:51:07;85917.31;;;-144.30;87.70
7180;BME280;3631;42.152;24.756;2024-02-26T08:53:35;85905.38;;;-144.30;87.58
7180;BME280;3631;42.152;24.756;2024-02-26T08:56:04;85905.38;;;-144.30;87.32
7180;BME280;3631;42.152;24.756;2024-02-26T08:58:31;85889.47;;;-144.30;86.44
7180;BME280;3631;42.152;24.756;2024-02-26T09:00:58;85897.44;;;-144.30;85.28
7180;BME280;3631;42.152;24.756;2024-02-26T09:03:25;85899.41;;;-144.30;84.76
7180;BME280;3631;42.152;24.756;2024-02-26T09:05:52;85917.31;;;-144.30;84.19
7180;BME280;3631;42.152;24.756;2024-02-26T09:08:19;85847.72;;;-144.30;84.39
7180;BME280;3631;42.152;24.756;2024-02-26T09:10:45;85841.75;;;-144.30;83.52
7180;BME280;3631;42.152;24.756;2024-02-26T09:13:14;85853.69;;;-144.30;83.34
7180;BME280;3631;42.152;24.756;2024-02-26T09:15:41;85903.41;;;-144.30;83.90
7180;BME280;3631;42.152;24.756;2024-02-26T09:18:07;85861.63;;;-144.30;83.43
7180;BME280;3631;42.152;24.756;2024-02-26T09:20:34;85889.47;;;-144.30;83.62
7180;BME280;3631;42.152;24.756;2024-02-26T09:23:01;85875.56;;;-144.30;83.37
7180;BME280;3631;42.152;24.756;2024-02-26T09:25:30;85835.78;;;-144.30;83.02
7180;BME280;3631;42.152;24.756;2024-02-26T09:27:58;85833.81;;;-144.30;82.21
7180;BME280;3631;42.152;24.756;2024-02-26T09:30:27;85798.03;;;-144.30;81.24
7180;BME280;3631;42.152;24.756;2024-02-26T09:32:54;85823.88;;;-144.30;81.42
7180;BME280;3631;42.152;24.756;2024-02-26T09:35:20;85817.91;;;-144.30;81.04
7180;BME280;3631;42.152;24.756;2024-02-26T09:37:47;85784.09;;;-144.30;81.52
7180;BME280;3631;42.152;24.756;2024-02-26T09:40:15;85784.09;;;-144.30;81.25
7180;BME280;3631;42.152;24.756;2024-02-26T09:42:43;85772.19;;;-144.30;80.32
7180;BME280;3631;42.152;24.756;2024-02-26T09:45:12;85734.41;;;-144.30;80.05
7180;BME280;3631;42.152;24.756;2024-02-26T09:47:45;85722.47;;;-144.30;79.45
7180;BME280;3631;42.152;24.756;2024-02-26T09:50:14;85698.63;;;-144.30;77.79
7180;BME280;3631;42.152;24.756;2024-02-26T09:52:43;85714.53;;;-144.30;76.69
7180;BME280;3631;42.152;24.756;2024-02-26T09:55:10;85682.72;;;-144.30;75.76
7180;BME280;3631;42.152;24.756;2024-02-26T09:57:37;85694.63;;;-144.30;75.96
7180;BME280;3631;42.152;24.756;2024-02-26T10:00:09;85708.56;;;-144.30;76.66
7180;BME280;3631;42.152;24.756;2024-02-26T10:02:38;85726.44;;;-144.30;76.53
7180;BME280;3631;42.152;24.756;2024-02-26T10:05:10;85686.69;;;-144.30;76.18
7180;BME280;3631;42.152;24.756;2024-02-26T10:07:39;85682.72;;;-144.30;76.22
7180;BME280;3631;42.152;24.756;2024-02-26T10:10:08;85694.63;;;-144.30;75.39
7180;BME280;3631;42.152;24.756;2024-02-26T10:12:35;85672.75;;;-144.30;75.55
7180;BME280;3631;42.152;24.756;2024-02-26T10:15:02;85635.00;;;-144.30;75.49
7180;BME280;3631;42.152;24.756;2024-02-26T10:17:30;85670.78;;;-144.30;76.03
7180;BME280;3631;42.152;24.756;2024-02-26T10:20:14;85658.84;;;-144.30;75.79
7180;BME280;3631;42.152;24.756;2024-02-26T10:22:43;85664.81;;;-144.30;75.13
7180;BME280;3631;42.152;24.756;2024-02-26T10:25:10;85670.78;;;-144.30;74.60
7180;BME280;3631;42.152;24.756;2024-02-26T10:27:36;85660.84;;;-144.30;74.53
7180;BME280;3631;42.152;24.756;2024-02-26T10:30:04;85619.09;;;-144.30;74.16
7180;BME280;3631;42.152;24.756;2024-02-26T10:32:32;85583.31;;;-144.30;73.60
7180;BME280;3631;42.152;24.756;2024-02-26T10:34:59;85603.19;;;-144.30;73.86
7180;BME280;3631;42.152;24.756;2024-02-26T10:37:27;85621.06;;;-144.30;73.99
7180;BME280;3631;42.152;24.756;2024-02-26T10:39:54;85640.97;;;-144.30;73.19
7180;BME280;3631;42.152;24.756;2024-02-26T10:42:21;85638.97;;;-144.30;73.17
7180;BME280;3631;42.152;24.756;2024-02-26T10:44:48;85636.97;;;-144.30;72.93
7180;BME280;3631;42.152;24.756;2024-02-26T10:47:15;85611.13;;;-144.30;73.33
7180;BME280;3631;42.152;24.756;2024-02-26T10:49:46;85613.13;;;-144.30;73.20
7180;BME280;3631;42.152;24.756;2024-02-26T10:52:15;85619.09;;;-144.30;73.99
7180;BME280;3631;42.152;24.756;2024-02-26T10:54:47;85603.19;;;-144.30;73.92
7180;BME280;3631;42.152;24.756;2024-02-26T10:57:17;85648.91;;;-144.30;73.13
7180;BME280;3631;42.152;24.756;2024-02-26T10:59:44;85593.25;;;-144.30;72.78
7180;BME280;3631;42.152;24.756;2024-02-26T11:02:13;85607.16;;;-144.30;72.48
7180;BME280;3631;42.152;24.756;2024-02-26T11:04:40;85694.63;;;-144.30;73.78
7180;BME280;3631;42.152;24.756;2024-02-26T11:07:09;85672.75;;;-144.30;73.40
7180;BME280;3631;42.152;24.756;2024-02-26T11:09:36;85658.84;;;-144.30;73.64
7180;BME280;3631;42.152;24.756;2024-02-26T11:12:10;85644.94;;;-144.30;73.64
7180;BME280;3631;42.152;24.756;2024-02-26T11:14:39;85595.22;;;-144.30;73.14
7180;BME280;3631;42.152;24.756;2024-02-26T11:17:07;85644.94;;;-144.30;72.44
7180;BME280;3631;42.152;24.756;2024-02-26T11:19:36;85658.84;;;-144.30;72.54
7180;BME280;3631;42.152;24.756;2024-02-26T11:22:03;85605.19;;;-144.30;72.71
7180;BME280;3631;42.152;24.756;2024-02-26T11:24:31;85644.94;;;-144.30;72.88
7180;BME280;3631;42.152;24.756;2024-02-26T11:27:01;85607.16;;;-144.30;72.54
7180;BME280;3631;42.152;24.756;2024-02-26T11:29:34;85585.28;;;-144.30;71.86
7180;BME280;3631;42.152;24.756;2024-02-26T11:32:02;85601.19;;;-144.30;71.96
7180;BME280;3631;42.152;24.756;2024-02-26T11:34:30;85549.50;;;-144.30;71.59
7180;BME280;3631;42.152;24.756;2024-02-26T11:36:57;85517.69;;;-144.30;71.28
7180;BME280;3631;42.152;24.756;2024-02-26T11:39:24;85555.47;;;-144.30;71.29
7180;BME280;3631;42.152;24.756;2024-02-26T11:41:52;85543.53;;;-144.30;71.33
7180;BME280;3631;42.152;24.756;2024-02-26T11:44:29;85567.41;;;-144.30;70.26
7180;BME280;3631;42.152;24.756;2024-02-26T11:46:57;85587.28;;;-144.30;69.90
7180;BME280;3631;42.152;24.756;2024-02-26T11:49:32;85408.34;;;-144.30;70.21
7180;BME280;3631;42.152;24.756;2024-02-26T11:52:00;85539.56;;;-144.30;70.60
7180;BME280;3631;42.152;24.756;2024-02-26T11:54:39;85561.44;;;-144.30;70.57
7180;BME280;3631;42.152;24.756;2024-02-26T11:57:20;85541.56;;;-144.30;70.43
7180;BME280;3631;42.152;24.756;2024-02-26T11:59:49;85543.53;;;-144.30;70.43
7180;BME280;3631;42.152;24.756;2024-02-26T12:02:39;85521.69;;;-144.30;70.12
7180;BME280;3631;42.152;24.756;2024-02-26T12:05:07;85513.72;;;-144.30;69.88
7180;BME280;3631;42.152;24.756;2024-02-26T12:07:36;85551.50;;;-144.30;64.86
7180;BME280;3631;42.152;24.756;2024-02-26T12:10:20;85555.47;;;-144.30;64.84
7180;BME280;3631;42.152;24.756;2024-02-26T12:12:53;85583.31;;;-144.30;64.92
7180;BME280;3631;42.152;24.756;2024-02-26T12:15:24;85537.59;;;-144.30;64.96
7180;BME280;3631;42.152;24.756;2024-02-26T12:17:52;85569.38;;;-144.30;64.94
7180;BME280;3631;42.152;24.756;2024-02-26T12:20:20;85575.34;;;-144.30;64.91
7180;BME280;3631;42.152;24.756;2024-02-26T12:22:47;85551.50;;;-144.30;64.58
7180;BME280;3631;42.152;24.756;2024-02-26T12:25:14;85547.53;;;-144.30;64.56
7180;BME280;3631;42.152;24.756;2024-02-26T12:27:41;85517.69;;;-144.30;64.38
7180;BME280;3631;42.152;24.756;2024-02-26T12:30:09;85521.69;;;-144.30;64.04
7180;BME280;3631;42.152;24.756;2024-02-26T12:32:38;85448.13;;;-144.30;63.78
7180;BME280;3631;42.152;24.756;2024-02-26T12:35:06;85505.78;;;-144.30;63.69
7180;BME280;3631;42.152;24.756;2024-02-26T12:37:33;85481.91;;;-144.30;63.30
7180;BME280;3631;42.152;24.756;2024-02-26T12:40:04;85497.81;;;-144.30;62.97
7180;BME280;3631;42.152;24.756;2024-02-26T12:42:33;85376.56;;;-144.30;62.17
7180;BME280;3631;42.152;24.756;2024-02-26T12:45:05;85402.41;;;-144.30;62.32
7180;BME280;3631;42.152;24.756;2024-02-26T12:47:37;85468.00;;;-144.30;61.52